Time;durP1;ratioP1;P1;durP2;ratioP2;P2;SDS_P1;SDS_P2;PMS_P1;PMS_P2;Temp;Humidity;BMP_temperature;BMP_pressure;BME280_temperature;BME280_humidity;BME280_pressure;Samples;Min_cycle;Max_cycle;Signal;HPM_P1;HPM_P2
2022/01/04 00:01:37;;;;;;;4.40;1.10;;;3.40;99.90;;;;;;5086821;28;20043;-65
2022/01/04 00:05:04;;;;;;;2.38;1.00;;;3.40;99.90;;;;;;5085659;28;20559;-65
2022/01/04 00:08:28;;;;;;;3.80;1.10;;;3.40;99.90;;;;;;5089232;28;20035;-65
2022/01/04 00:14:59;;;;;;;4.13;1.13;;;3.40;99.90;;;;;;5085696;28;20059;-65
2022/01/04 00:18:24;;;;;;;2.97;1.25;;;3.50;99.90;;;;;;5083811;28;20404;-65
2022/01/04 00:21:50;;;;;;;5.72;1.08;;;3.60;99.90;;;;;;5098497;28;20040;-65
2022/01/04 00:25:16;;;;;;;4.55;1.25;;;3.70;99.90;;;;;;5089797;28;20119;-65
2022/01/04 00:28:40;;;;;;;3.88;1.10;;;3.80;99.90;;;;;;5083369;28;20051;-65
2022/01/04 00:32:06;;;;;;;3.88;1.10;;;3.90;99.90;;;;;;5086609;28;20047;-65
2022/01/04 00:35:31;;;;;;;2.42;1.25;;;4.10;99.90;;;;;;5097859;28;20134;-65
2022/01/04 00:38:56;;;;;;;3.72;1.60;;;4.20;99.90;;;;;;5084824;28;20028;-66
2022/01/04 00:42:22;;;;;;;2.25;1.10;;;4.50;99.90;;;;;;5102509;28;20042;-58
2022/01/04 00:45:47;;;;;;;7.53;1.42;;;4.60;99.90;;;;;;5086154;28;20032;-57
2022/01/04 00:49:17;;;;;;;4.22;1.30;;;4.70;99.90;;;;;;5092574;28;20035;-57
2022/01/04 00:52:38;;;;;;;6.18;1.27;;;4.70;99.90;;;;;;5100976;28;20036;-58
2022/01/04 00:56:03;;;;;;;6.07;1.10;;;4.70;99.90;;;;;;5103870;28;20463;-57
2022/01/04 00:59:28;;;;;;;6.90;1.10;;;4.70;99.90;;;;;;5087875;28;20074;-57
2022/01/04 01:02:54;;;;;;;4.68;1.25;;;4.70;99.90;;;;;;5096468;28;20031;-58
2022/01/04 01:06:19;;;;;;;5.88;1.48;;;4.70;99.90;;;;;;5099784;28;20407;-56
2022/01/04 01:10:03;;;;;;;2.58;1.05;;;4.80;99.90;;;;;;5085714;28;20036;-57
2022/01/04 01:12:53;;;;;;;;;;;4.80;99.90;;;;;;5106168;28;20040;-59
2022/01/04 01:16:18;;;;;;;3.08;0.90;;;4.80;99.90;;;;;;5093000;28;20337;-59
2022/01/04 01:19:44;;;;;;;2.05;1.13;;;4.90;99.90;;;;;;5089605;28;20034;-59
2022/01/04 01:23:09;;;;;;;3.53;0.95;;;4.80;99.90;;;;;;5103985;28;20036;-58
2022/01/04 01:26:34;;;;;;;6.10;1.25;;;4.80;99.90;;;;;;5093255;28;20032;-59
2022/01/04 01:30:00;;;;;;;4.50;1.10;;;4.80;99.90;;;;;;5090105;28;20235;-58
2022/01/04 01:33:27;;;;;;;3.05;1.20;;;4.80;99.90;;;;;;5089408;28;20052;-59
2022/01/04 01:36:50;;;;;;;3.72;1.13;;;4.80;99.90;;;;;;5103418;28;20059;-59
2022/01/04 01:40:16;;;;;;;1.52;0.90;;;4.90;99.90;;;;;;5092737;28;20097;-58
2022/01/04 01:43:41;;;;;;;2.55;1.00;;;4.90;99.90;;;;;;5090651;28;20036;-59
2022/01/04 01:47:06;;;;;;;1.40;0.90;;;4.80;99.90;;;;;;5097583;28;20042;-57
2022/01/04 01:50:32;;;;;;;2.97;1.23;;;4.80;99.90;;;;;;5109911;28;20364;-59
2022/01/04 01:53:57;;;;;;;3.40;1.10;;;4.80;99.90;;;;;;5105392;28;20093;-57
2022/01/04 01:57:24;;;;;;;4.25;1.20;;;4.90;99.90;;;;;;5107334;28;20036;-57
2022/01/04 02:00:48;;;;;;;1.33;0.47;;;4.80;99.90;;;;;;5105829;28;20444;-58
2022/01/04 02:04:13;;;;;;;2.53;0.90;;;4.80;99.90;;;;;;5105309;28;20479;-59
2022/01/04 02:07:39;;;;;;;2.25;0.85;;;4.80;99.90;;;;;;5092315;28;20044;-59
2022/01/04 02:11:04;;;;;;;2.80;0.70;;;4.80;99.90;;;;;;5105904;28;20077;-58
2022/01/04 02:14:29;;;;;;;2.60;1.27;;;4.80;99.90;;;;;;5110462;28;20059;-56
2022/01/04 02:17:55;;;;;;;3.40;1.10;;;4.90;99.90;;;;;;5096105;28;20044;-59
2022/01/04 02:20:40;;;;;;;3.45;0.90;;;4.90;99.90;;;;;;5109840;28;20521;-57
2022/01/04 02:23:06;;;;;;;2.63;1.02;;;4.90;99.90;;;;;;5111892;28;20036;-58
2022/01/04 02:25:31;;;;;;;2.40;1.00;;;4.90;99.90;;;;;;5092173;28;20050;-57
2022/01/04 02:27:58;;;;;;;6.47;1.00;;;4.90;99.90;;;;;;5099014;28;20070;-57
2022/01/04 02:30:23;;;;;;;2.83;0.88;;;4.90;99.90;;;;;;5091627;28;20377;-57
2022/01/04 02:32:49;;;;;;;1.88;0.93;;;4.80;99.90;;;;;;5091488;28;20034;-56
2022/01/04 02:35:18;;;;;;;2.40;0.70;;;4.80;99.90;;;;;;5111185;28;20040;-57
2022/01/04 02:37:44;;;;;;;1.80;0.88;;;4.80;99.90;;;;;;5089546;28;20051;-57
2022/01/04 02:40:10;;;;;;;2.80;0.90;;;4.70;99.90;;;;;;5111143;28;20067;-57
2022/01/04 02:42:36;;;;;;;3.58;0.90;;;4.70;99.90;;;;;;5092531;28;20031;-58
2022/01/04 02:45:03;;;;;;;1.10;0.80;;;4.70;99.90;;;;;;5091529;28;20032;-57
2022/01/04 02:47:29;;;;;;;2.95;1.00;;;4.70;99.90;;;;;;5094390;28;20467;-57
2022/01/04 02:49:55;;;;;;;1.48;1.00;;;4.70;99.90;;;;;;5110724;28;20050;-59
2022/01/04 02:52:21;;;;;;;4.43;0.88;;;4.60;99.90;;;;;;5089224;28;20076;-56
2022/01/04 02:54:47;;;;;;;1.67;0.75;;;4.70;99.90;;;;;;5110690;28;20110;-57
2022/01/04 02:57:12;;;;;;;3.97;0.90;;;4.70;99.90;;;;;;5089748;28;20031;-58
2022/01/04 02:59:38;;;;;;;6.13;1.17;;;4.70;99.90;;;;;;5110507;28;20024;-56
2022/01/04 03:02:04;;;;;;;2.67;0.90;;;4.70;99.90;;;;;;5089520;28;20028;-58
2022/01/04 03:04:30;;;;;;;1.77;0.82;;;4.70;99.90;;;;;;5110525;28;20031;-58
2022/01/04 03:06:55;;;;;;;3.38;1.00;;;4.60;99.90;;;;;;5099692;28;20113;-57
2022/01/04 03:09:21;;;;;;;1.45;0.75;;;4.60;99.90;;;;;;5091041;28;20064;-57
2022/01/04 03:11:46;;;;;;;2.92;1.13;;;4.60;99.90;;;;;;5108294;28;20035;-57
2022/01/04 03:14:12;;;;;;;1.45;0.73;;;4.50;99.90;;;;;;5091183;28;20024;-58
2022/01/04 03:16:37;;;;;;;0.75;0.68;;;4.50;99.90;;;;;;5108237;28;20600;-57
2022/01/04 03:19:06;;;;;;;3.55;1.20;;;4.50;99.90;;;;;;5090799;28;20032;-57
2022/01/04 03:21:40;;;;;;;3.45;0.90;;;4.50;99.90;;;;;;5108523;28;20031;-58
2022/01/04 03:24:08;;;;;;;2.67;0.90;;;4.40;99.90;;;;;;5090489;28;20043;-57
2022/01/04 03:26:34;;;;;;;3.35;1.10;;;4.40;99.90;;;;;;5108308;28;20449;-58
2022/01/04 03:29:00;;;;;;;3.75;1.33;;;4.40;99.90;;;;;;5110385;28;20112;-58
2022/01/04 03:31:27;;;;;;;1.77;1.00;;;4.40;99.90;;;;;;5094839;28;20040;-57
2022/01/04 03:33:52;;;;;;;2.28;0.80;;;4.30;99.90;;;;;;5110038;28;20360;-57
2022/01/04 03:36:21;;;;;;;2.50;1.17;;;4.40;99.90;;;;;;5093937;28;20038;-57
2022/01/04 03:38:48;;;;;;;5.55;0.98;;;4.40;99.90;;;;;;5110736;28;20113;-58
2022/01/04 03:41:16;;;;;;;5.18;1.38;;;4.30;99.90;;;;;;5092869;28;20611;-57
2022/01/04 03:43:42;;;;;;;3.72;1.00;;;4.30;99.90;;;;;;5106420;28;20035;-58
2022/01/04 03:46:08;;;;;;;4.82;1.10;;;4.30;99.90;;;;;;5092288;28;20038;-58
2022/01/04 03:48:34;;;;;;;3.28;0.90;;;4.30;99.90;;;;;;5110255;28;20019;-57
2022/01/04 03:51:02;;;;;;;4.40;0.95;;;4.20;99.90;;;;;;5090821;28;20044;-57
2022/01/04 03:53:28;;;;;;;2.17;0.90;;;4.30;99.90;;;;;;5110445;27;20016;-58
2022/01/04 03:55:54;;;;;;;3.15;1.20;;;4.20;99.90;;;;;;5090295;28;20123;-58
2022/01/04 03:58:20;;;;;;;3.65;1.00;;;4.20;99.90;;;;;;5110019;28;20247;-58
2022/01/04 04:00:45;;;;;;;3.22;1.10;;;4.20;99.90;;;;;;5088899;28;20035;-58
2022/01/04 04:03:11;;;;;;;3.03;1.02;;;4.20;99.90;;;;;;5110303;28;20028;-57
2022/01/04 04:05:36;;;;;;;3.53;1.40;;;4.10;99.90;;;;;;5090093;28;20031;-58
2022/01/04 04:08:02;;;;;;;3.85;0.90;;;4.10;99.90;;;;;;5107138;28;20391;-58
2022/01/04 04:10:28;;;;;;;1.83;0.85;;;4.10;99.90;;;;;;5090151;28;20040;-55
2022/01/04 04:12:53;;;;;;;1.30;0.68;;;4.20;99.90;;;;;;5088928;28;20103;-56
2022/01/04 04:15:19;;;;;;;3.88;1.20;;;4.20;99.90;;;;;;5108799;28;20038;-58
2022/01/04 04:17:45;;;;;;;4.35;1.10;;;4.30;99.90;;;;;;5088102;28;20030;-58
2022/01/04 04:20:11;;;;;;;4.18;1.38;;;4.30;99.90;;;;;;5109449;28;20046;-57
2022/01/04 04:22:37;;;;;;;3.72;1.27;;;4.30;99.90;;;;;;5087757;28;20107;-58
2022/01/04 04:25:02;;;;;;;4.00;1.08;;;4.40;99.90;;;;;;5108735;28;20114;-57
2022/01/04 04:27:28;;;;;;;2.63;1.30;;;4.40;99.90;;;;;;5092554;28;20050;-59
2022/01/04 04:29:53;;;;;;;1.90;1.00;;;4.40;99.90;;;;;;5109458;28;20032;-57
2022/01/04 04:32:19;;;;;;;4.28;1.20;;;4.40;99.90;;;;;;5087673;28;20035;-58
2022/01/04 04:34:44;;;;;;;3.40;1.10;;;4.50;99.90;;;;;;5108613;28;20391;-58
2022/01/04 04:37:10;;;;;;;2.78;0.88;;;4.50;99.90;;;;;;5087928;28;20464;-58
2022/01/04 04:39:35;;;;;;;3.03;1.40;;;4.50;99.90;;;;;;5108443;28;20118;-58
2022/01/04 04:42:01;;;;;;;3.28;1.30;;;4.50;99.90;;;;;;5091784;28;20042;-59
2022/01/04 04:44:27;;;;;;;2.35;1.10;;;4.50;99.90;;;;;;5088690;28;20024;-58
2022/01/04 04:46:52;;;;;;;3.70;1.60;;;4.50;99.90;;;;;;5106571;28;20514;-56
2022/01/04 04:49:18;;;;;;;2.72;1.35;;;4.50;99.90;;;;;;5089225;28;20027;-57
2022/01/04 04:51:43;;;;;;;2.88;1.33;;;4.50;99.90;;;;;;5106320;28;20067;-45
2022/01/04 04:54:09;;;;;;;7.45;1.95;;;4.50;99.90;;;;;;5087915;28;20085;-46
2022/01/04 04:56:38;;;;;;;3.88;1.23;;;4.50;99.90;;;;;;5109170;28;20073;-45
2022/01/04 04:59:04;;;;;;;2.78;1.77;;;4.40;99.90;;;;;;5088765;28;20107;-45
2022/01/04 05:01:30;;;;;;;4.78;1.60;;;4.40;99.90;;;;;;5088856;28;20039;-46
2022/01/04 05:03:55;;;;;;;2.78;1.75;;;4.50;99.90;;;;;;5108393;28;20016;-45
2022/01/04 05:06:21;;;;;;;5.78;1.92;;;4.50;99.90;;;;;;5087510;28;20440;-45
2022/01/04 05:08:46;;;;;;;3.15;1.80;;;4.50;99.90;;;;;;5108286;28;20114;-48
2022/01/04 05:11:12;;;;;;;3.00;1.83;;;4.40;99.90;;;;;;5087260;28;20048;-45
2022/01/04 05:13:38;;;;;;;6.10;1.67;;;4.40;99.90;;;;;;5108227;28;20031;-45
2022/01/04 05:16:04;;;;;;;4.57;1.80;;;4.40;99.90;;;;;;5087429;28;20040;-45
2022/01/04 05:18:29;;;;;;;4.60;2.15;;;4.30;99.90;;;;;;5108321;28;20513;-46
2022/01/04 05:20:55;;;;;;;2.60;1.65;;;4.30;99.90;;;;;;5087329;28;20064;-46
2022/01/04 05:23:20;;;;;;;5.30;2.40;;;4.20;99.90;;;;;;5108118;28;20062;-45
2022/01/04 05:25:46;;;;;;;5.10;2.08;;;4.20;99.90;;;;;;5087291;28;20463;-45
2022/01/04 05:28:11;;;;;;;3.85;1.90;;;4.10;99.90;;;;;;5096898;28;20059;-45
2022/01/04 05:30:37;;;;;;;4.88;1.75;;;4.10;99.90;;;;;;5093295;28;20609;-45
2022/01/04 05:33:02;;;;;;;6.05;2.30;;;4.00;99.90;;;;;;5107965;28;20052;-46
2022/01/04 05:35:28;;;;;;;4.65;2.08;;;4.00;99.90;;;;;;5087169;28;20032;-46
2022/01/04 05:37:53;;;;;;;5.57;2.15;;;4.00;99.90;;;;;;5107973;28;20038;-46
2022/01/04 05:40:19;;;;;;;4.30;2.10;;;3.90;99.90;;;;;;5097397;28;20039;-48
2022/01/04 05:42:44;;;;;;;4.95;1.55;;;3.90;99.90;;;;;;5091988;28;20252;-47
2022/01/04 05:45:10;;;;;;;8.38;2.67;;;3.90;99.90;;;;;;5096140;28;20032;-46
2022/01/04 05:47:36;;;;;;;5.60;2.40;;;3.90;99.90;;;;;;5088702;28;20032;-46
2022/01/04 05:50:02;;;;;;;4.63;2.50;;;3.90;99.90;;;;;;5105665;28;20039;-49
2022/01/04 05:52:27;;;;;;;5.30;2.67;;;3.90;99.90;;;;;;5088613;28;20059;-47
2022/01/04 05:54:53;;;;;;;5.97;2.63;;;3.90;99.90;;;;;;5105903;28;20057;-47
2022/01/04 05:57:19;;;;;;;8.07;2.58;;;3.90;99.90;;;;;;5111794;28;20562;-46
2022/01/04 05:59:44;;;;;;;4.55;2.33;;;3.90;99.90;;;;;;5096093;28;20031;-45
2022/01/04 06:02:10;;;;;;;6.75;2.60;;;4.00;99.90;;;;;;5112263;28;20070;-47
2022/01/04 06:04:35;;;;;;;4.55;2.30;;;3.90;99.90;;;;;;5094672;28;20016;-45
2022/01/04 06:07:01;;;;;;;3.58;2.20;;;3.90;99.90;;;;;;5112359;28;20043;-45
2022/01/04 06:09:30;;;;;;;4.20;2.13;;;3.90;99.90;;;;;;5093615;28;20027;-50
2022/01/04 06:11:59;;;;;;;5.88;2.42;;;3.90;99.90;;;;;;5112395;28;20283;-47
2022/01/04 06:17:10;;;;;;;3.80;1.80;;;3.80;99.90;;;;;;5112383;28;20577;-45
2022/01/04 06:19:38;;;;;;;3.85;2.25;;;3.80;99.90;;;;;;5087883;28;20457;-46
2022/01/04 06:22:04;;;;;;;5.65;2.53;;;3.80;99.90;;;;;;5111227;28;20027;-46
2022/01/04 06:24:29;;;;;;;5.20;2.20;;;3.70;99.90;;;;;;5098376;28;20058;-46
2022/01/04 06:26:55;;;;;;;5.43;2.00;;;3.70;99.90;;;;;;5092167;28;20064;-50
2022/01/04 06:29:22;;;;;;;6.78;2.33;;;3.70;99.90;;;;;;5110110;28;20023;-48
2022/01/04 06:31:48;;;;;;;2.90;1.73;;;3.60;99.90;;;;;;5111951;28;20040;-48
2022/01/04 06:34:14;;;;;;;3.50;2.03;;;3.60;99.90;;;;;;5095964;28;20027;-46
2022/01/04 06:36:39;;;;;;;5.53;1.95;;;3.60;99.90;;;;;;5111619;28;20035;-47
2022/01/04 06:39:05;;;;;;;5.40;2.33;;;3.60;99.90;;;;;;5094691;28;20483;-49
2022/01/04 06:41:31;;;;;;;3.88;2.03;;;3.60;99.90;;;;;;5111676;28;20031;-46
2022/01/04 06:43:57;;;;;;;4.85;2.50;;;3.60;99.90;;;;;;5088966;28;20020;-46
2022/01/04 06:46:25;;;;;;;5.68;2.33;;;3.60;99.90;;;;;;5111830;28;20250;-48
2022/01/04 06:48:50;;;;;;;5.68;2.47;;;3.70;99.90;;;;;;5092405;28;20028;-50
2022/01/04 06:51:16;;;;;;;5.95;2.67;;;3.70;99.90;;;;;;5111528;28;20084;-46
2022/01/04 06:53:41;;;;;;;6.20;2.38;;;3.70;99.90;;;;;;5091264;28;20028;-47
2022/01/04 06:56:07;;;;;;;4.55;2.50;;;3.60;99.90;;;;;;5111436;28;20103;-46
2022/01/04 06:58:32;;;;;;;3.47;2.20;;;3.70;99.90;;;;;;5087762;28;20059;-49
2022/01/04 07:00:58;;;;;;;9.27;2.83;;;3.70;99.90;;;;;;5110765;28;20043;-47
2022/01/04 07:03:24;;;;;;;7.97;2.58;;;3.70;99.90;;;;;;5089829;28;20441;-45
2022/01/04 07:05:49;;;;;;;3.28;2.00;;;3.70;99.90;;;;;;5108154;28;20038;-45
2022/01/04 07:08:15;;;;;;;6.82;2.72;;;3.70;99.90;;;;;;5090355;28;20028;-50
2022/01/04 07:10:40;;;;;;;5.90;2.53;;;3.70;99.90;;;;;;5108252;28;20157;-51
2022/01/04 07:13:46;;;;;;;8.13;2.65;;;3.70;99.90;;;;;;5091107;28;20023;-48
2022/01/04 07:17:11;;;;;;;5.45;2.80;;;3.60;99.90;;;;;;5088220;28;20527;-46
2022/01/04 07:20:36;;;;;;;6.03;2.53;;;3.70;99.90;;;;;;5101934;28;20096;-47
2022/01/04 07:24:02;;;;;;;5.93;2.85;;;3.70;99.90;;;;;;5090591;28;20044;-47
2022/01/04 07:27:27;;;;;;;6.97;3.70;;;3.70;99.90;;;;;;5088249;28;20124;-47
2022/01/04 07:30:52;;;;;;;11.15;2.90;;;3.70;99.90;;;;;;5105497;28;20040;-45
2022/01/04 07:34:18;;;;;;;7.50;3.13;;;3.70;99.90;;;;;;5090102;28;20043;-47
2022/01/04 07:37:43;;;;;;;6.95;2.83;;;3.70;99.90;;;;;;5104688;28;20040;-45
2022/01/04 07:41:08;;;;;;;5.93;2.63;;;3.80;99.90;;;;;;5106286;28;20073;-45
2022/01/04 07:44:34;;;;;;;6.53;2.75;;;3.90;99.90;;;;;;5086665;28;20293;-45
2022/01/04 07:47:59;;;;;;;8.00;2.90;;;3.90;99.90;;;;;;5104405;28;20043;-45
2022/01/04 07:51:25;;;;;;;5.10;1.70;;;4.00;99.90;;;;;;5092790;28;20054;-46
2022/01/04 07:54:50;;;;;;;7.22;3.10;;;4.10;99.90;;;;;;5103981;28;20548;-47
2022/01/04 07:58:15;;;;;;;3.60;2.42;;;4.30;99.90;;;;;;5093287;28;20028;-48
2022/01/04 08:01:41;;;;;;;8.65;3.40;;;4.30;99.90;;;;;;5089189;28;20028;-45
2022/01/04 08:05:06;;;;;;;7.07;3.13;;;4.40;99.90;;;;;;5102604;28;20027;-48
2022/01/04 08:08:31;;;;;;;8.68;2.85;;;4.50;99.90;;;;;;5091142;28;20066;-47
2022/01/04 08:11:57;;;;;;;5.25;2.45;;;4.50;99.90;;;;;;5089560;28;20392;-45
2022/01/04 08:15:23;;;;;;;6.03;2.58;;;4.50;99.90;;;;;;5101080;28;20031;-45
2022/01/04 08:18:47;;;;;;;9.10;3.22;;;4.60;99.90;;;;;;5088788;28;20066;-45
2022/01/04 08:21:33;;;;;;;4.50;2.63;;;4.70;99.90;;;;;;5088661;28;20028;-54
2022/01/04 08:23:59;;;;;;;3.55;2.30;;;4.70;99.90;;;;;;5107879;28;20130;-49
2022/01/04 08:26:25;;;;;;;9.20;3.00;;;4.80;99.90;;;;;;5087009;28;20032;-54
2022/01/04 08:28:50;;;;;;;6.05;2.75;;;4.80;99.90;;;;;;5107256;28;20570;-52
2022/01/04 08:31:16;;;;;;;4.80;2.47;;;4.80;99.90;;;;;;5086801;28;20466;-53
2022/01/04 08:33:41;;;;;;;7.95;2.88;;;4.90;99.90;;;;;;5107670;28;20039;-52
2022/01/04 08:36:09;;;;;;;5.60;2.95;;;4.90;99.90;;;;;;5086685;28;20295;-53
2022/01/04 08:38:34;;;;;;;4.82;2.25;;;5.00;99.90;;;;;;5107916;28;20602;-55
2022/01/04 08:41:00;;;;;;;4.68;2.47;;;5.00;99.90;;;;;;5086411;28;20103;-51
2022/01/04 08:43:26;;;;;;;3.40;2.15;;;5.10;99.90;;;;;;5100419;28;20054;-51
2022/01/04 08:45:52;;;;;;;2.55;1.73;;;5.20;99.90;;;;;;5096828;28;20538;-51
2022/01/04 08:48:17;;;;;;;6.53;2.25;;;5.30;99.90;;;;;;5088504;28;20032;-49
2022/01/04 08:50:44;;;;;;;6.50;2.15;;;5.40;99.90;;;;;;5105347;28;20097;-54
2022/01/04 08:53:11;;;;;;;4.30;2.25;;;5.50;99.90;;;;;;5087888;28;20060;-50
2022/01/04 08:55:38;;;;;;;5.47;2.42;;;5.60;99.90;;;;;;5105733;28;20074;-53
2022/01/04 08:58:04;;;;;;;5.78;1.95;;;5.70;99.90;;;;;;5088130;28;20340;-52
2022/01/04 09:00:29;;;;;;;4.63;2.08;;;5.70;99.90;;;;;;5105210;28;20024;-53
2022/01/04 09:02:55;;;;;;;3.53;1.95;;;5.80;99.90;;;;;;5108059;28;20023;-54
2022/01/04 09:05:20;;;;;;;3.53;1.50;;;5.90;99.90;;;;;;5092120;28;20035;-52
2022/01/04 09:07:46;;;;;;;3.85;1.80;;;6.00;99.90;;;;;;5107934;28;20464;-53
2022/01/04 09:10:11;;;;;;;5.95;1.98;;;6.10;99.90;;;;;;5090815;28;20426;-52
2022/01/04 09:13:14;;;;;;;4.00;1.75;;;6.20;99.90;;;;;;5105056;28;20098;-54
2022/01/04 09:15:33;;;;;;;3.72;2.13;;;6.20;99.90;;;;;;5083203;28;20044;-51
2022/01/04 09:20:47;;;;;;;8.85;2.67;;;6.40;99.90;;;;;;5087884;28;20050;-52
2022/01/04 09:23:20;;;;;;;9.40;2.58;;;6.50;99.90;;;;;;5105163;28;20024;-53
2022/01/04 09:25:52;;;;;;;6.47;3.78;;;6.50;99.90;;;;;;5107882;28;20322;-52
2022/01/04 09:28:19;;;;;;;11.98;6.47;;;6.60;99.90;;;;;;5091484;28;20031;-50
2022/01/04 09:30:46;;;;;;;46.88;19.45;;;6.70;99.90;;;;;;5108226;28;20035;-49
2022/01/04 09:33:12;;;;;;;21.75;10.20;;;6.80;99.90;;;;;;5094813;28;20056;-50
2022/01/04 09:35:38;;;;;;;16.05;8.73;;;6.90;99.90;;;;;;5111902;28;20062;-55
2022/01/04 09:38:05;;;;;;;17.13;7.43;;;6.90;99.90;;;;;;5093981;28;20028;-53
2022/01/04 09:40:32;;;;;;;19.58;8.20;;;7.00;99.90;;;;;;5111775;28;20081;-51
2022/01/04 09:42:58;;;;;;;36.25;19.42;;;7.00;99.90;;;;;;5085712;28;20028;-53
2022/01/04 09:45:23;;;;;;;17.85;10.82;;;7.10;99.90;;;;;;5111771;28;20027;-53
2022/01/04 09:47:49;;;;;;;13.20;7.97;;;7.10;99.90;;;;;;5091817;28;20058;-53
2022/01/04 09:50:15;;;;;;;7.93;3.58;;;7.20;99.90;;;;;;5111528;28;20516;-49
2022/01/04 09:52:44;;;;;;;6.45;3.55;;;7.20;99.90;;;;;;5090504;28;20035;-55
2022/01/04 09:55:14;;;;;;;5.53;3.47;;;7.20;99.90;;;;;;5111205;28;20098;-53
2022/01/04 09:57:41;;;;;;;7.82;5.00;;;7.20;99.90;;;;;;5089286;28;20038;-52
2022/01/04 10:00:08;;;;;;;5.22;2.55;;;7.20;99.90;;;;;;5089704;28;20020;-52
2022/01/04 10:02:35;;;;;;;4.60;2.15;;;7.20;99.90;;;;;;5110618;28;20419;-53
2022/01/04 10:05:19;;;;;;;3.42;1.50;;;7.20;99.90;;;;;;5111198;28;20479;-48
2022/01/04 10:07:46;;;;;;;3.33;1.63;;;7.20;99.90;;;;;;5088932;28;20028;-51
2022/01/04 10:10:13;;;;;;;2.22;1.38;;;7.20;99.90;;;;;;5090543;28;20036;-50
2022/01/04 10:12:52;;;;;;;2.45;1.25;;;7.20;99.90;;;;;;5108862;28;20042;-53
2022/01/04 10:15:40;;;;;;;2.03;1.33;;;7.20;99.90;;;;;;5111021;28;20024;-54
2022/01/04 10:18:27;;;;;;;2.53;1.30;;;7.20;99.90;;;;;;5092880;28;20246;-48
2022/01/04 10:21:12;;;;;;;2.03;1.42;;;7.20;99.90;;;;;;5111217;28;20032;-52
2022/01/04 10:23:48;;;;;;;3.20;1.50;;;7.20;99.90;;;;;;5088849;28;20024;-51
2022/01/04 10:26:14;;;;;;;2.42;1.10;;;7.20;99.90;;;;;;5110761;28;20035;-52
2022/01/04 10:28:42;;;;;;;3.08;1.90;;;7.20;99.90;;;;;;5098296;28;20082;-54
2022/01/04 10:31:10;;;;;;;2.35;1.48;;;7.20;99.90;;;;;;5090151;28;20092;-50
2022/01/04 10:33:36;;;;;;;1.70;1.33;;;7.20;99.90;;;;;;5108535;28;20047;-48
2022/01/04 10:36:11;;;;;;;3.13;2.08;;;7.20;99.90;;;;;;5090790;28;20487;-54
2022/01/04 10:38:39;;;;;;;2.03;1.55;;;7.20;99.90;;;;;;5088524;28;20028;-51
2022/01/04 10:41:18;;;;;;;3.90;1.40;;;7.20;99.90;;;;;;5110317;28;20165;-51
2022/01/04 10:43:53;;;;;;;2.72;1.58;;;7.20;99.90;;;;;;5080148;28;20028;-51
2022/01/04 10:46:42;;;;;;;2.63;1.63;;;7.30;99.90;;;;;;5100223;28;20084;-52
2022/01/04 10:49:17;;;;;;;2.47;1.60;;;7.30;99.90;;;;;;5089051;28;20072;-54
2022/01/04 10:51:44;;;;;;;3.67;1.27;;;7.30;99.90;;;;;;5091733;28;20071;-54
2022/01/04 10:54:17;;;;;;;3.58;1.50;;;7.30;99.90;;;;;;5109452;28;20061;-53
2022/01/04 10:56:43;;;;;;;3.95;1.58;;;7.30;99.90;;;;;;5104856;28;20066;-51
2022/01/04 10:59:11;;;;;;;3.78;1.33;;;7.30;99.90;;;;;;5090325;28;20055;-54
2022/01/04 11:01:43;;;;;;;1.90;1.40;;;7.40;99.90;;;;;;5092351;28;20028;-54
2022/01/04 11:04:15;;;;;;;1.90;1.60;;;7.40;99.90;;;;;;5109909;28;20055;-50
2022/01/04 11:06:41;;;;;;;1.95;1.30;;;7.40;99.90;;;;;;5087973;28;20062;-50
2022/01/04 11:09:09;;;;;;;2.88;1.90;;;7.40;99.90;;;;;;5109215;28;20101;-47
2022/01/04 11:11:35;;;;;;;2.03;1.52;;;7.40;99.90;;;;;;5088176;28;20044;-53
2022/01/04 11:14:01;;;;;;;3.20;1.40;;;7.40;99.90;;;;;;5109288;28;20092;-56
2022/01/04 11:16:30;;;;;;;2.53;1.67;;;7.40;99.90;;;;;;5088393;28;20032;-56
2022/01/04 11:18:58;;;;;;;2.47;1.98;;;7.50;99.90;;;;;;5109508;28;20511;-50
2022/01/04 11:21:35;;;;;;;2.35;1.30;;;7.40;99.90;;;;;;5087905;28;20092;-51
2022/01/04 11:24:03;;;;;;;3.10;1.33;;;7.50;99.90;;;;;;5089571;28;20078;-56
2022/01/04 11:26:29;;;;;;;2.03;1.35;;;7.50;99.90;;;;;;5092931;28;20494;-53
2022/01/04 11:28:55;;;;;;;1.85;1.27;;;7.50;99.90;;;;;;5109002;28;20071;-55
2022/01/04 11:31:54;;;;;;;1.88;1.27;;;7.40;99.90;;;;;;5087427;28;20040;-56
2022/01/04 11:34:56;;;;;;;3.00;1.50;;;7.40;99.90;;;;;;5089211;28;20174;-52
2022/01/04 11:37:23;;;;;;;3.67;2.00;;;7.40;99.90;;;;;;5089504;28;20032;-53
2022/01/04 11:39:51;;;;;;;3.97;2.35;;;7.50;99.90;;;;;;5106944;28;20290;-54
2022/01/04 11:42:31;;;;;;;3.42;1.92;;;7.50;99.90;;;;;;5095788;28;20032;-54
2022/01/04 11:44:59;;;;;;;3.67;1.60;;;7.50;99.90;;;;;;5106435;28;20028;-53
2022/01/04 11:47:30;;;;;;;2.30;1.83;;;7.50;99.90;;;;;;5109319;28;20012;-53
2022/01/04 11:50:13;;;;;;;2.30;1.83;;;7.50;99.90;;;;;;5086958;28;20028;-49
2022/01/04 11:52:49;;;;;;;2.78;2.05;;;7.60;99.90;;;;;;5089036;28;20553;-52
2022/01/04 11:55:21;;;;;;;;;;;7.60;99.90;;;;;;5107000;28;20051;-53
2022/01/04 11:57:51;;;;;;;2.72;1.80;;;7.60;99.90;;;;;;5109070;28;19904;-53
2022/01/04 12:00:28;;;;;;;1.92;1.30;;;7.70;99.90;;;;;;5091165;28;20023;-55
2022/01/04 12:03:12;;;;;;;2.47;1.58;;;7.70;99.90;;;;;;5109232;28;20406;-52
2022/01/04 12:05:39;;;;;;;2.08;1.50;;;7.80;99.90;;;;;;5086796;28;20572;-49
2022/01/04 12:08:19;;;;;;;2.92;1.95;;;7.80;99.90;;;;;;5088044;28;20365;-51
2022/01/04 12:10:46;;;;;;;1.65;1.40;;;7.80;99.90;;;;;;5084041;28;20032;-50
2022/01/04 12:13:14;;;;;;;2.78;1.35;;;7.80;99.90;;;;;;5088640;28;20024;-55
2022/01/04 12:15:54;;;;;;;2.50;1.50;;;7.80;99.90;;;;;;5106620;28;20031;-52
2022/01/04 12:18:22;;;;;;;2.78;1.55;;;7.80;99.90;;;;;;5088506;28;20032;-53
2022/01/04 12:20:50;;;;;;;1.70;1.55;;;7.80;99.90;;;;;;5094599;28;20020;-52
2022/01/04 12:23:31;;;;;;;2.72;1.88;;;7.80;99.90;;;;;;5108235;28;20019;-51
2022/01/04 12:26:03;;;;;;;3.95;1.88;;;7.90;99.90;;;;;;5099470;28;20410;-53
2022/01/04 12:28:39;;;;;;;3.63;1.92;;;7.90;99.90;;;;;;5088616;28;20039;-52
2022/01/04 12:31:17;;;;;;;2.95;1.70;;;7.90;99.90;;;;;;5100224;28;20181;-51
2022/01/04 12:33:51;;;;;;;3.83;2.45;;;8.00;99.90;;;;;;5087685;28;20402;-55
2022/01/04 12:36:46;;;;;;;3.45;2.85;;;7.90;99.90;;;;;;5102234;28;20023;-51
2022/01/04 12:39:20;;;;;;;5.63;2.05;;;7.80;99.90;;;;;;5087117;28;20402;-55
2022/01/04 12:41:47;;;;;;;4.57;2.45;;;7.90;99.90;;;;;;5082361;28;20059;-66
2022/01/04 12:44:20;;;;;;;2.40;2.00;;;7.80;99.90;;;;;;5084337;28;20105;-67
2022/01/04 12:46:47;;;;;;;3.42;1.63;;;7.80;99.90;;;;;;5099476;28;20031;-67
2022/01/04 12:49:16;;;;;;;2.45;1.60;;;7.80;99.90;;;;;;5088411;28;20491;-67
2022/01/04 12:51:50;;;;;;;3.20;1.77;;;7.80;99.90;;;;;;5093498;28;20044;-47
2022/01/04 12:54:19;;;;;;;2.38;1.90;;;7.80;99.90;;;;;;5087961;28;20028;-46
2022/01/04 12:56:48;;;;;;;1.90;1.73;;;7.70;99.90;;;;;;5092318;28;20032;-46
2022/01/04 12:59:23;;;;;;;3.67;2.10;;;7.70;99.90;;;;;;5107430;28;20024;-49
2022/01/04 13:01:59;;;;;;;1.63;1.30;;;7.70;99.90;;;;;;5086651;28;20552;-49
2022/01/04 13:04:34;;;;;;;3.33;1.80;;;7.60;99.90;;;;;;5107563;28;20557;-46
2022/01/04 13:07:02;;;;;;;2.05;1.45;;;7.60;99.90;;;;;;5100770;28;20039;-49
2022/01/04 13:09:28;;;;;;;3.63;1.95;;;7.60;99.90;;;;;;5087533;28;20399;-46
2022/01/04 13:11:54;;;;;;;2.33;1.65;;;7.50;99.90;;;;;;5087542;28;20032;-49
2022/01/04 13:14:22;;;;;;;4.50;2.08;;;7.50;99.90;;;;;;5087858;28;20031;-50
2022/01/04 13:16:49;;;;;;;3.25;1.55;;;7.50;99.90;;;;;;5085827;28;20491;-46
2022/01/04 13:19:18;;;;;;;3.13;1.95;;;7.50;99.90;;;;;;5087699;28;20069;-45
2022/01/04 13:21:45;;;;;;;2.47;1.83;;;7.50;99.90;;;;;;5105423;28;20031;-46
2022/01/04 13:24:10;;;;;;;2.03;1.60;;;7.50;99.90;;;;;;5108010;28;20019;-46
2022/01/04 13:26:36;;;;;;;2.40;1.75;;;7.50;99.90;;;;;;5091231;28;20483;-50
2022/01/04 13:29:02;;;;;;;1.83;1.40;;;7.50;99.90;;;;;;5107907;28;20502;-48
2022/01/04 13:31:29;;;;;;;2.78;1.75;;;7.60;99.90;;;;;;5089753;28;20104;-51
2022/01/04 13:33:55;;;;;;;2.85;2.03;;;7.60;99.90;;;;;;5107890;28;20099;-46
2022/01/04 13:36:22;;;;;;;4.18;2.42;;;7.70;99.90;;;;;;5088805;28;20059;-46
2022/01/04 13:38:50;;;;;;;3.22;2.30;;;7.70;99.90;;;;;;5107855;28;20522;-51
2022/01/04 13:41:35;;;;;;;3.17;2.38;;;7.70;99.90;;;;;;5087807;28;20032;-45
2022/01/04 13:44:05;;;;;;;2.47;1.80;;;7.70;99.90;;;;;;5082551;28;20430;-46
2022/01/04 13:46:31;;;;;;;2.75;2.05;;;7.60;99.90;;;;;;5087070;28;20059;-47
2022/01/04 13:48:58;;;;;;;2.65;1.88;;;7.60;99.90;;;;;;5087618;28;20032;-47
2022/01/04 13:51:35;;;;;;;3.50;2.28;;;7.50;99.90;;;;;;5107260;28;20067;-48
2022/01/04 13:54:09;;;;;;;3.38;2.28;;;7.50;99.90;;;;;;5103994;28;20024;-48
2022/01/04 13:56:35;;;;;;;2.60;2.25;;;7.50;99.90;;;;;;5087577;28;20039;-51
2022/01/04 13:59:01;;;;;;;3.28;2.50;;;7.60;99.90;;;;;;5086552;28;20376;-49
2022/01/04 14:01:36;;;;;;;4.15;2.92;;;7.50;99.90;;;;;;5107008;28;20043;-49
2022/01/04 14:04:08;;;;;;;3.28;2.22;;;7.50;99.90;;;;;;5085440;28;20020;-46
2022/01/04 14:06:38;;;;;;;5.00;3.25;;;7.50;99.90;;;;;;5093951;28;20024;-48
2022/01/04 14:09:09;;;;;;;4.90;3.22;;;7.50;99.90;;;;;;5087259;28;20039;-46